Time;durP1;ratioP1;P1;durP2;ratioP2;P2;SDS_P1;SDS_P2;PMS_P1;PMS_P2;Temp;Humidity;BMP_temperature;BMP_pressure;BME280_temperature;BME280_humidity;BME280_pressure;Samples;Min_cycle;Max_cycle;Signal;HPM_P1;HPM_P2
2021/12/29 00:01:04;;;;;;;107.32;20.23;;;6.30;99.90;;;;;;5107876;28;20044;-63
2021/12/29 00:03:30;;;;;;;96.68;19.90;;;6.20;99.90;;;;;;5105585;28;20048;-63
2021/12/29 00:05:56;;;;;;;115.90;19.23;;;6.20;99.90;;;;;;5102832;28;20044;-63
2021/12/29 00:08:22;;;;;;;76.68;17.85;;;6.20;99.90;;;;;;5108789;28;20071;-63
2021/12/29 00:10:54;;;;;;;44.17;15.75;;;6.20;99.90;;;;;;5106690;28;20044;-63
2021/12/29 00:13:21;;;;;;;43.83;15.68;;;6.30;99.90;;;;;;5104588;28;20061;-63
2021/12/29 00:15:47;;;;;;;42.78;15.45;;;6.40;99.90;;;;;;5123839;28;20043;-62
2021/12/29 00:18:13;;;;;;;50.63;16.45;;;6.40;99.90;;;;;;5123257;28;20103;-63
2021/12/29 00:20:38;;;;;;;40.83;15.23;;;6.30;99.90;;;;;;5107284;28;20036;-63
2021/12/29 00:23:07;;;;;;;41.70;14.82;;;6.30;99.90;;;;;;5108120;28;20047;-63
2021/12/29 00:25:33;;;;;;;55.45;16.15;;;6.30;99.90;;;;;;5106872;28;20039;-63
2021/12/29 00:28:01;;;;;;;49.90;15.45;;;6.30;99.90;;;;;;5108375;28;20087;-63
2021/12/29 00:30:27;;;;;;;56.03;17.13;;;6.30;99.90;;;;;;5105557;28;20055;-63
2021/12/29 00:32:53;;;;;;;54.70;16.13;;;6.30;99.90;;;;;;5109975;28;20048;-63
2021/12/29 00:35:19;;;;;;;48.88;16.33;;;6.30;99.90;;;;;;5105543;28;20039;-63
2021/12/29 00:37:45;;;;;;;60.47;16.25;;;6.30;99.90;;;;;;5112720;28;20072;-63
2021/12/29 00:40:11;;;;;;;48.88;14.75;;;6.30;99.90;;;;;;5111818;28;20079;-63
2021/12/29 00:42:38;;;;;;;40.80;13.77;;;6.30;99.90;;;;;;5106398;28;20042;-63
2021/12/29 00:45:05;;;;;;;37.60;13.68;;;6.40;99.90;;;;;;5106417;28;20051;-63
2021/12/29 00:47:33;;;;;;;35.35;13.63;;;6.30;99.90;;;;;;5105855;28;20044;-62
2021/12/29 00:50:01;;;;;;;36.25;13.38;;;6.20;99.90;;;;;;5090890;28;20496;-63
2021/12/29 00:52:27;;;;;;;36.25;12.68;;;6.30;99.90;;;;;;5106240;28;20168;-63
2021/12/29 00:54:52;;;;;;;34.80;12.98;;;6.30;99.90;;;;;;5103813;28;20052;-63
2021/12/29 00:57:18;;;;;;;35.38;12.95;;;6.30;99.90;;;;;;5102392;28;20040;-63
2021/12/29 00:59:45;;;;;;;41.70;13.93;;;6.20;99.90;;;;;;5104755;28;20040;-63
2021/12/29 01:02:11;;;;;;;34.63;12.65;;;6.20;99.90;;;;;;5105638;28;20094;-63
2021/12/29 01:04:37;;;;;;;35.80;13.20;;;6.10;99.90;;;;;;5106381;28;20516;-63
2021/12/29 01:07:04;;;;;;;44.55;12.77;;;6.20;99.90;;;;;;5106523;28;20058;-63
2021/12/29 01:09:31;;;;;;;43.25;12.73;;;6.10;99.90;;;;;;5105835;28;20044;-63
2021/12/29 01:11:58;;;;;;;41.20;12.20;;;6.10;99.90;;;;;;5105508;28;20079;-63
2021/12/29 01:14:26;;;;;;;32.40;11.43;;;6.10;99.90;;;;;;5097961;28;20042;-63
2021/12/29 01:16:53;;;;;;;28.98;10.57;;;6.10;99.90;;;;;;5104016;28;20043;-63
2021/12/29 01:19:22;;;;;;;29.38;10.80;;;6.20;99.90;;;;;;5105216;28;20067;-63
2021/12/29 01:21:51;;;;;;;36.67;10.95;;;6.10;99.90;;;;;;5105107;28;20069;-63
2021/12/29 01:24:21;;;;;;;27.60;9.73;;;6.10;99.90;;;;;;5104326;28;20043;-63
2021/12/29 01:26:47;;;;;;;31.88;10.15;;;6.10;99.90;;;;;;5104980;28;20377;-63
2021/12/29 01:29:14;;;;;;;31.60;9.30;;;6.20;99.90;;;;;;5102744;28;20044;-63
2021/12/29 01:31:41;;;;;;;25.60;9.35;;;6.00;99.90;;;;;;5102972;28;20442;-63
2021/12/29 01:34:08;;;;;;;31.35;10.18;;;6.00;99.90;;;;;;5105332;28;20416;-63
2021/12/29 01:36:36;;;;;;;29.33;9.63;;;6.00;99.90;;;;;;5105028;28;20067;-63
2021/12/29 01:39:06;;;;;;;30.15;10.30;;;6.00;99.90;;;;;;5100544;28;20059;-63
2021/12/29 01:41:32;;;;;;;32.72;9.77;;;6.00;99.90;;;;;;5105168;28;20615;-63
2021/12/29 01:43:58;;;;;;;33.47;10.02;;;6.10;99.90;;;;;;5104161;28;20047;-63
2021/12/29 01:46:24;;;;;;;39.47;11.00;;;6.20;99.90;;;;;;5104075;28;20080;-63
2021/12/29 01:48:50;;;;;;;46.92;11.65;;;6.20;99.90;;;;;;5103924;28;20043;-63
2021/12/29 01:51:18;;;;;;;56.67;13.32;;;6.20;99.90;;;;;;5104138;28;20075;-63
2021/12/29 01:54:03;;;;;;;58.83;11.98;;;6.20;99.90;;;;;;5106531;28;20066;-63
2021/12/29 01:56:32;;;;;;;59.35;12.88;;;6.10;99.90;;;;;;5117210;28;20120;-63
2021/12/29 01:58:58;;;;;;;56.38;12.43;;;6.30;99.90;;;;;;5106135;28;20040;-63
2021/12/29 02:01:24;;;;;;;63.83;13.35;;;6.40;99.90;;;;;;5103485;28;20097;-63
2021/12/29 02:03:52;;;;;;;62.83;13.15;;;6.40;99.90;;;;;;5121678;28;20040;-63
2021/12/29 02:06:18;;;;;;;69.25;15.27;;;6.40;99.90;;;;;;5106430;28;20071;-63
2021/12/29 02:08:44;;;;;;;82.80;15.20;;;6.30;99.90;;;;;;5087032;28;20047;-63
2021/12/29 02:11:10;;;;;;;70.70;14.45;;;6.40;99.90;;;;;;5108817;28;20089;-63
2021/12/29 02:13:36;;;;;;;88.05;15.40;;;6.40;99.90;;;;;;5086937;28;20054;-63
2021/12/29 02:16:01;;;;;;;113.13;17.70;;;6.40;99.90;;;;;;5104486;28;20036;-63
2021/12/29 02:18:27;;;;;;;79.95;14.88;;;6.50;99.90;;;;;;5104424;28;20079;-63
2021/12/29 02:20:54;;;;;;;98.03;15.68;;;6.40;99.90;;;;;;5103246;28;20039;-63
2021/12/29 02:23:35;;;;;;;85.65;16.45;;;6.40;99.90;;;;;;5103268;28;20099;-63
2021/12/29 02:26:02;;;;;;;73.47;15.75;;;6.50;99.90;;;;;;5098861;28;20055;-63
2021/12/29 02:28:34;;;;;;;106.75;16.45;;;6.50;99.90;;;;;;5105843;28;20048;-63
2021/12/29 02:31:01;;;;;;;90.22;15.73;;;6.50;99.90;;;;;;5103674;28;20101;-63
2021/12/29 02:33:30;;;;;;;96.43;16.98;;;6.50;99.90;;;;;;5105264;28;20126;-63
2021/12/29 02:35:58;;;;;;;102.47;16.75;;;6.50;99.90;;;;;;5102254;28;20055;-63
2021/12/29 02:38:30;;;;;;;103.55;16.23;;;6.50;99.90;;;;;;5102202;28;20048;-63
2021/12/29 02:40:59;;;;;;;87.10;15.70;;;6.70;99.90;;;;;;5104599;28;20036;-63
2021/12/29 02:43:25;;;;;;;77.80;13.63;;;6.70;99.90;;;;;;5102866;28;20046;-63
2021/12/29 02:45:58;;;;;;;84.32;14.15;;;6.60;99.90;;;;;;5099702;28;20043;-63
2021/12/29 02:48:32;;;;;;;90.20;14.25;;;6.60;99.90;;;;;;5103456;28;20100;-63
2021/12/29 02:51:00;;;;;;;77.05;13.93;;;6.70;99.90;;;;;;5102519;28;20055;-63
2021/12/29 02:53:30;;;;;;;70.15;12.75;;;6.70;99.90;;;;;;5103804;28;20051;-63
2021/12/29 02:55:56;;;;;;;71.28;11.30;;;6.70;99.90;;;;;;5118255;28;20047;-63
2021/12/29 02:58:23;;;;;;;55.97;11.00;;;6.70;99.90;;;;;;5103298;28;20078;-63
2021/12/29 03:00:50;;;;;;;59.65;11.20;;;6.70;99.90;;;;;;5103803;28;20048;-63
2021/12/29 03:03:24;;;;;;;54.85;10.27;;;6.70;99.90;;;;;;5089707;28;20127;-63
2021/12/29 03:05:51;;;;;;;42.63;8.90;;;6.70;99.90;;;;;;5103401;28;20495;-63
2021/12/29 03:08:18;;;;;;;47.05;10.07;;;6.80;99.90;;;;;;5103422;28;20036;-63
2021/12/29 03:10:45;;;;;;;51.70;8.95;;;6.70;99.90;;;;;;5108113;28;20052;-63
2021/12/29 03:13:11;;;;;;;42.75;10.07;;;6.80;99.90;;;;;;5105692;28;20040;-63
2021/12/29 03:15:38;;;;;;;44.78;9.98;;;6.80;99.90;;;;;;5102881;28;20051;-63
2021/12/29 03:18:05;;;;;;;50.13;9.73;;;6.80;99.90;;;;;;5103603;28;20044;-63
2021/12/29 03:20:32;;;;;;;44.22;10.63;;;6.90;99.90;;;;;;5104423;28;20044;-63
2021/12/29 03:22:58;;;;;;;46.88;11.13;;;6.80;99.90;;;;;;5105306;28;20047;-63
2021/12/29 03:25:25;;;;;;;45.72;10.55;;;6.90;99.90;;;;;;5104347;28;20050;-63
2021/12/29 03:27:52;;;;;;;49.58;11.13;;;6.80;99.90;;;;;;5120055;28;20044;-63
2021/12/29 03:30:17;;;;;;;47.00;11.73;;;6.90;99.90;;;;;;5122160;28;20058;-63
2021/12/29 03:32:50;;;;;;;40.95;11.27;;;6.90;99.90;;;;;;5107609;28;20063;-63
2021/12/29 03:35:17;;;;;;;51.30;11.98;;;6.80;99.90;;;;;;5108468;28;20043;-63
2021/12/29 03:37:42;;;;;;;57.70;13.00;;;7.00;99.90;;;;;;5107164;28;20091;-63
2021/12/29 03:40:09;;;;;;;59.90;13.85;;;7.10;99.90;;;;;;5107358;28;20040;-63
2021/12/29 03:42:35;;;;;;;67.82;14.70;;;7.00;99.90;;;;;;5106974;28;20059;-63
2021/12/29 03:45:01;;;;;;;55.78;13.02;;;7.00;99.90;;;;;;5124715;28;20048;-63
2021/12/29 03:47:27;;;;;;;63.47;14.90;;;7.10;99.90;;;;;;5109389;28;20042;-63
2021/12/29 03:49:52;;;;;;;58.25;14.48;;;7.00;99.90;;;;;;5108085;28;20099;-63
2021/12/29 03:52:18;;;;;;;63.08;15.50;;;7.10;99.90;;;;;;5106352;28;20055;-63
2021/12/29 03:54:44;;;;;;;64.22;15.52;;;7.20;99.90;;;;;;5106212;28;20054;-63
2021/12/29 03:57:09;;;;;;;56.85;15.85;;;7.10;99.90;;;;;;5113689;28;20032;-63
2021/12/29 03:59:35;;;;;;;62.20;16.30;;;7.20;99.90;;;;;;5105624;28;20065;-63
2021/12/29 04:02:01;;;;;;;62.50;16.38;;;7.10;99.90;;;;;;5109865;28;20043;-63
2021/12/29 04:04:27;;;;;;;65.53;17.63;;;7.20;99.90;;;;;;5089165;28;20507;-63
2021/12/29 04:06:53;;;;;;;68.55;17.20;;;7.20;99.90;;;;;;5099540;28;20047;-63
2021/12/29 04:09:19;;;;;;;70.15;19.00;;;7.20;99.90;;;;;;5104640;28;20044;-63
2021/12/29 04:11:50;;;;;;;62.53;17.45;;;7.20;99.90;;;;;;5108371;28;20048;-63
2021/12/29 04:14:24;;;;;;;;;;;7.30;99.90;;;;;;5103179;28;20040;-63
2021/12/29 04:16:50;;;;;;;65.25;20.15;;;7.30;99.90;;;;;;5108290;28;20010;-63
2021/12/29 04:19:17;;;;;;;65.22;18.95;;;7.20;99.90;;;;;;5106933;28;20439;-63
2021/12/29 04:21:47;;;;;;;75.90;21.15;;;7.30;99.90;;;;;;5099137;28;20040;-63
2021/12/29 04:24:14;;;;;;;63.25;19.85;;;7.20;99.90;;;;;;5107819;28;20055;-63
2021/12/29 04:26:40;;;;;;;66.10;20.65;;;7.30;99.90;;;;;;5106503;28;20051;-63
2021/12/29 04:29:08;;;;;;;62.03;19.55;;;7.20;99.90;;;;;;5107238;28;20135;-63
2021/12/29 04:31:34;;;;;;;62.72;19.00;;;7.30;99.90;;;;;;5107186;28;20123;-63
2021/12/29 04:37:40;;;;;;;67.45;20.85;;;7.20;99.90;;;;;;5100804;28;20063;-63
2021/12/29 04:40:07;;;;;;;64.55;20.65;;;7.10;99.90;;;;;;5102539;28;20044;-63
2021/12/29 04:42:33;;;;;;;63.70;21.55;;;7.20;99.90;;;;;;5105270;28;20052;-63
2021/12/29 04:44:59;;;;;;;69.88;21.60;;;7.30;99.90;;;;;;5105769;28;20048;-63
2021/12/29 04:47:29;;;;;;;78.65;24.55;;;7.30;99.90;;;;;;5108119;28;20092;-63
2021/12/29 04:50:01;;;;;;;73.30;22.98;;;7.40;99.90;;;;;;5109721;28;20048;-63
2021/12/29 04:52:30;;;;;;;65.25;20.85;;;7.20;99.90;;;;;;5106575;28;20044;-63
2021/12/29 04:54:56;;;;;;;68.35;22.08;;;7.30;99.90;;;;;;5106366;28;20051;-63
2021/12/29 04:57:21;;;;;;;63.08;21.98;;;7.30;99.90;;;;;;5105816;28;20040;-63
2021/12/29 04:59:47;;;;;;;62.85;21.30;;;7.20;99.90;;;;;;5105586;28;20032;-63
2021/12/29 05:02:13;;;;;;;62.85;21.52;;;7.30;99.90;;;;;;5105544;28;20044;-63
2021/12/29 05:04:46;;;;;;;61.85;20.55;;;7.30;99.90;;;;;;5106889;28;20048;-63
2021/12/29 05:09:58;;;;;;;59.60;20.08;;;7.30;99.90;;;;;;5105522;28;20055;-63
2021/12/29 05:12:24;;;;;;;49.13;20.23;;;7.30;99.90;;;;;;5106778;28;20040;-63
2021/12/29 05:14:50;;;;;;;49.83;19.55;;;7.40;99.90;;;;;;5108260;28;20104;-63
2021/12/29 05:17:15;;;;;;;50.78;17.60;;;7.40;99.90;;;;;;5106365;28;20044;-63
2021/12/29 05:19:41;;;;;;;54.00;19.70;;;7.20;99.90;;;;;;5106041;28;20040;-63
2021/12/29 05:22:07;;;;;;;46.55;17.65;;;7.30;99.90;;;;;;5107426;28;20047;-63
2021/12/29 05:24:33;;;;;;;52.97;18.63;;;7.30;99.90;;;;;;5105918;28;20443;-63
2021/12/29 05:26:59;;;;;;;51.40;19.15;;;7.40;99.90;;;;;;5105627;28;20044;-63
2021/12/29 05:29:25;;;;;;;54.72;19.23;;;7.50;99.90;;;;;;5105594;28;20040;-63
2021/12/29 05:31:51;;;;;;;45.35;17.58;;;7.50;99.90;;;;;;5120952;28;20040;-63
2021/12/29 05:34:17;;;;;;;46.17;17.85;;;7.50;99.90;;;;;;5104200;28;20059;-63
2021/12/29 05:36:43;;;;;;;49.03;18.58;;;7.50;99.90;;;;;;5105082;28;20036;-63
2021/12/29 05:39:09;;;;;;;44.67;17.15;;;7.50;99.90;;;;;;5105873;28;20043;-63
2021/12/29 05:41:34;;;;;;;42.38;16.50;;;7.50;99.90;;;;;;5104445;28;20040;-63
2021/12/29 05:44:00;;;;;;;46.90;18.00;;;7.50;99.90;;;;;;5105471;28;20074;-63
2021/12/29 05:46:26;;;;;;;40.60;15.93;;;7.40;99.90;;;;;;5103775;28;20099;-63
2021/12/29 05:48:52;;;;;;;47.40;17.45;;;7.50;99.90;;;;;;5103975;28;20058;-63
2021/12/29 05:51:17;;;;;;;48.95;18.10;;;7.40;99.90;;;;;;5103158;28;20110;-63
2021/12/29 05:53:44;;;;;;;43.97;17.58;;;7.60;99.90;;;;;;5102911;28;20062;-63
2021/12/29 05:56:10;;;;;;;46.83;17.02;;;7.60;99.90;;;;;;5104660;28;20055;-63
2021/12/29 05:58:36;;;;;;;52.78;17.30;;;7.50;99.90;;;;;;5104854;28;20059;-63
2021/12/29 06:01:04;;;;;;;48.67;18.48;;;7.50;99.90;;;;;;5106112;28;20044;-63
2021/12/29 06:03:29;;;;;;;47.63;19.33;;;7.50;99.90;;;;;;5098213;28;20125;-63
2021/12/29 06:05:55;;;;;;;47.45;17.58;;;7.50;99.90;;;;;;5105849;28;20044;-63
2021/12/29 06:08:21;;;;;;;48.35;18.88;;;7.50;99.90;;;;;;5121269;28;20105;-63
2021/12/29 06:10:47;;;;;;;45.30;17.80;;;7.40;99.90;;;;;;5102558;28;20478;-63
2021/12/29 06:13:13;;;;;;;42.17;17.63;;;7.50;99.90;;;;;;5107299;28;20048;-63
2021/12/29 06:15:39;;;;;;;48.58;18.95;;;7.50;99.90;;;;;;5104257;28;20060;-63
2021/12/29 06:18:05;;;;;;;42.60;18.00;;;7.50;99.90;;;;;;5103248;28;20107;-63
2021/12/29 06:20:31;;;;;;;43.15;18.50;;;7.50;99.90;;;;;;5103235;28;20048;-63
2021/12/29 06:22:57;;;;;;;47.08;17.58;;;7.50;99.90;;;;;;5086166;28;20058;-63
2021/12/29 06:25:23;;;;;;;43.45;17.55;;;7.40;99.90;;;;;;5088380;28;20040;-63
2021/12/29 06:27:50;;;;;;;49.92;18.38;;;7.50;99.90;;;;;;5106014;28;20051;-63
2021/12/29 06:30:17;;;;;;;43.08;16.85;;;7.30;99.90;;;;;;5102706;28;20059;-63
2021/12/29 06:32:45;;;;;;;42.13;17.98;;;7.40;99.90;;;;;;5102848;28;20051;-63
2021/12/29 06:35:12;;;;;;;41.75;17.63;;;7.40;99.90;;;;;;5104198;28;20040;-64
2021/12/29 06:37:38;;;;;;;42.05;16.90;;;7.30;99.90;;;;;;5105397;28;20056;-64
2021/12/29 06:40:05;;;;;;;46.88;18.17;;;7.40;99.90;;;;;;5104146;28;20100;-64
2021/12/29 06:42:31;;;;;;;42.25;17.38;;;7.50;99.90;;;;;;5103505;28;20050;-64
2021/12/29 06:44:57;;;;;;;48.70;17.60;;;7.40;99.90;;;;;;5120605;28;20105;-64
2021/12/29 06:47:24;;;;;;;39.88;17.00;;;7.40;99.90;;;;;;5104573;28;20119;-64
2021/12/29 06:49:50;;;;;;;46.35;18.85;;;7.40;99.90;;;;;;5102579;28;20048;-64
2021/12/29 06:52:16;;;;;;;44.20;16.35;;;7.40;99.90;;;;;;5102823;28;20125;-64
2021/12/29 06:54:42;;;;;;;46.75;17.23;;;7.50;99.90;;;;;;5109973;28;20047;-63
2021/12/29 06:57:07;;;;;;;46.67;17.95;;;7.40;99.90;;;;;;5102459;28;20075;-63
2021/12/29 06:59:34;;;;;;;43.55;17.67;;;7.50;99.90;;;;;;5102929;28;20069;-63
2021/12/29 07:02:00;;;;;;;44.95;17.52;;;7.40;99.90;;;;;;5086720;28;20040;-63
2021/12/29 07:04:26;;;;;;;42.75;16.75;;;7.50;99.90;;;;;;5104167;28;20058;-63
2021/12/29 07:06:53;;;;;;;41.55;17.30;;;7.50;99.90;;;;;;5106759;28;20111;-63
2021/12/29 07:09:20;;;;;;;44.13;17.30;;;7.50;99.90;;;;;;5104914;28;20042;-63
2021/12/29 07:11:46;;;;;;;44.33;16.58;;;7.50;99.90;;;;;;5103537;28;20441;-63
2021/12/29 07:14:12;;;;;;;36.28;15.70;;;7.50;99.90;;;;;;5085630;28;20104;-63
2021/12/29 07:16:39;;;;;;;41.20;16.08;;;7.50;99.90;;;;;;5104137;28;20039;-63
2021/12/29 07:19:05;;;;;;;35.78;15.35;;;7.50;99.90;;;;;;5104366;28;20488;-63
2021/12/29 07:21:31;;;;;;;42.97;17.77;;;7.60;99.90;;;;;;5105094;28;20111;-63
2021/12/29 07:23:57;;;;;;;42.03;16.85;;;7.50;99.90;;;;;;5103529;28;20048;-63
2021/12/29 07:26:24;;;;;;;37.15;16.23;;;7.50;99.90;;;;;;5099329;28;20517;-63
2021/12/29 07:28:51;;;;;;;41.42;15.63;;;7.50;99.90;;;;;;5104420;28;20052;-63
2021/12/29 07:31:18;;;;;;;36.45;14.88;;;7.50;99.90;;;;;;5120664;28;20040;-63
2021/12/29 07:33:44;;;;;;;40.13;15.65;;;7.40;99.90;;;;;;5103345;28;20048;-63
2021/12/29 07:36:11;;;;;;;37.58;15.05;;;7.40;99.90;;;;;;5105190;28;20050;-63
2021/12/29 07:38:38;;;;;;;29.65;14.30;;;7.40;99.90;;;;;;5103204;28;20496;-63
2021/12/29 07:41:04;;;;;;;36.00;14.27;;;7.30;99.90;;;;;;5102827;28;20388;-63
2021/12/29 07:43:30;;;;;;;30.05;13.43;;;7.30;99.90;;;;;;5102838;28;20587;-63
2021/12/29 07:45:55;;;;;;;33.08;13.57;;;7.40;99.90;;;;;;5103351;28;20480;-64
2021/12/29 07:48:27;;;;;;;30.63;13.30;;;7.50;99.90;;;;;;5105913;28;20040;-63
2021/12/29 07:50:54;;;;;;;40.45;14.23;;;7.40;99.90;;;;;;5105052;28;20051;-63
2021/12/29 07:53:20;;;;;;;36.63;14.27;;;7.50;99.90;;;;;;5104323;28;20040;-63
2021/12/29 07:55:47;;;;;;;33.08;12.75;;;7.40;99.90;;;;;;5105022;28;20055;-63
2021/12/29 07:58:13;;;;;;;30.55;13.00;;;7.50;99.90;;;;;;5106272;28;20044;-63
2021/12/29 08:00:39;;;;;;;34.25;12.70;;;7.40;99.90;;;;;;5103664;28;20048;-64
2021/12/29 08:03:05;;;;;;;35.03;13.15;;;7.40;99.90;;;;;;5104858;28;20079;-63
2021/12/29 08:05:31;;;;;;;35.90;12.95;;;7.40;99.90;;;;;;5119361;28;20047;-64
2021/12/29 08:07:56;;;;;;;32.35;13.13;;;7.30;99.90;;;;;;5117044;28;20038;-64
2021/12/29 08:10:22;;;;;;;36.60;13.75;;;7.50;99.90;;;;;;5118212;28;20124;-65
2021/12/29 08:12:48;;;;;;;42.25;14.10;;;7.40;99.90;;;;;;5116638;28;20098;-64
2021/12/29 08:15:14;;;;;;;40.58;13.27;;;7.40;99.90;;;;;;5119506;28;20074;-64
2021/12/29 08:17:41;;;;;;;33.35;13.57;;;7.50;99.90;;;;;;5126341;28;20099;-66
2021/12/29 08:20:08;;;;;;;36.42;12.13;;;7.60;99.90;;;;;;5120889;28;20508;-64
2021/12/29 08:22:34;;;;;;;41.42;13.40;;;7.40;99.90;;;;;;5118272;28;20090;-65
2021/12/29 08:25:00;;;;;;;41.50;13.93;;;7.60;99.90;;;;;;5122438;28;20036;-64
2021/12/29 08:27:26;;;;;;;44.95;13.32;;;7.50;99.90;;;;;;5122103;28;20545;-65
2021/12/29 08:29:52;;;;;;;46.15;13.15;;;7.50;99.90;;;;;;5119898;28;20040;-66
2021/12/29 08:32:20;;;;;;;41.67;14.25;;;7.60;99.90;;;;;;5119718;28;20622;-66
2021/12/29 08:34:46;;;;;;;44.60;12.93;;;7.50;99.90;;;;;;5118965;28;20093;-65
2021/12/29 08:37:12;;;;;;;41.95;13.80;;;7.50;99.90;;;;;;5113354;28;20040;-64
2021/12/29 08:39:37;;;;;;;59.03;14.55;;;7.50;99.90;;;;;;5114339;28;20069;-65
2021/12/29 08:42:03;;;;;;;53.53;14.40;;;7.60;99.90;;;;;;5117423;28;20038;-64
2021/12/29 08:44:29;;;;;;;64.47;16.25;;;7.60;99.90;;;;;;5119214;28;20539;-65
2021/12/29 08:46:55;;;;;;;67.22;17.80;;;7.60;99.90;;;;;;5112572;28;20043;-64
2021/12/29 08:49:20;;;;;;;64.60;15.73;;;7.60;99.90;;;;;;5112542;28;20066;-65
2021/12/29 08:51:46;;;;;;;70.93;17.30;;;7.70;99.90;;;;;;5111522;28;20381;-65
2021/12/29 08:54:12;;;;;;;70.18;17.77;;;7.60;99.90;;;;;;5104882;28;20056;-65
2021/12/29 08:56:38;;;;;;;74.03;17.60;;;7.60;99.90;;;;;;5107090;28;20062;-65
2021/12/29 08:59:04;;;;;;;73.68;17.80;;;7.70;99.90;;;;;;5105240;28;20048;-63
2021/12/29 09:01:31;;;;;;;72.43;18.05;;;7.60;99.90;;;;;;5113590;28;20474;-66
2021/12/29 09:03:57;;;;;;;81.32;17.30;;;7.60;99.90;;;;;;5096944;28;20060;-63
2021/12/29 09:06:22;;;;;;;88.90;18.08;;;7.60;99.90;;;;;;5104734;28;20691;-63
2021/12/29 09:08:48;;;;;;;89.03;18.55;;;7.70;99.90;;;;;;5104989;28;20132;-63
2021/12/29 09:11:14;;;;;;;75.28;18.45;;;7.70;99.90;;;;;;5105393;28;20089;-62
2021/12/29 09:13:41;;;;;;;79.95;17.88;;;7.60;99.90;;;;;;5099510;28;20048;-63
2021/12/29 09:16:07;;;;;;;67.05;17.63;;;7.60;99.90;;;;;;5106962;28;20507;-63
2021/12/29 09:18:36;;;;;;;64.25;16.70;;;7.70;99.90;;;;;;5108690;28;20098;-63
2021/12/29 09:21:07;;;;;;;61.13;16.45;;;7.70;99.90;;;;;;5104889;28;20094;-63
2021/12/29 09:23:34;;;;;;;51.88;15.70;;;7.80;99.90;;;;;;5103292;28;20135;-63
2021/12/29 09:26:01;;;;;;;51.53;14.63;;;7.60;99.90;;;;;;5104551;28;20048;-63
2021/12/29 09:28:27;;;;;;;50.97;14.65;;;7.80;99.90;;;;;;5106244;28;20496;-63
2021/12/29 09:30:53;;;;;;;51.90;15.40;;;7.80;99.90;;;;;;5104192;28;20040;-63
2021/12/29 09:33:20;;;;;;;61.38;15.95;;;7.70;99.90;;;;;;5101676;28;20040;-63
2021/12/29 09:35:49;;;;;;;61.70;16.45;;;7.80;99.90;;;;;;5103353;28;20099;-63
2021/12/29 09:38:16;;;;;;;52.20;15.65;;;7.90;99.90;;;;;;5104154;28;20048;-63
2021/12/29 09:40:43;;;;;;;58.65;16.65;;;7.90;99.90;;;;;;5106179;28;20115;-63
2021/12/29 09:43:09;;;;;;;50.60;16.92;;;7.90;99.90;;;;;;5096188;28;20590;-63
2021/12/29 09:45:37;;;;;;;66.60;15.82;;;7.90;99.90;;;;;;5121687;28;20173;-63
2021/12/29 09:48:03;;;;;;;65.85;16.42;;;7.90;99.90;;;;;;5107944;28;20510;-63
2021/12/29 09:50:29;;;;;;;65.63;15.25;;;7.80;99.90;;;;;;5105997;28;20052;-63
2021/12/29 09:52:56;;;;;;;68.07;16.77;;;8.00;99.90;;;;;;5117616;28;20083;-64
2021/12/29 09:55:23;;;;;;;71.32;15.98;;;8.00;99.90;;;;;;5107670;28;20567;-63
2021/12/29 09:57:52;;;;;;;56.42;14.88;;;7.90;99.90;;;;;;5110927;28;20044;-63
2021/12/29 10:00:27;;;;;;;55.33;14.57;;;8.10;99.90;;;;;;5115812;28;20462;-63
2021/12/29 10:02:55;;;;;;;45.45;13.05;;;8.10;99.90;;;;;;5110460;28;20051;-63
2021/12/29 10:05:22;;;;;;;47.78;13.30;;;7.90;99.90;;;;;;5096984;28;20060;-65
2021/12/29 10:08:05;;;;;;;36.05;11.90;;;7.90;99.90;;;;;;5065421;28;20062;-64
2021/12/29 10:10:33;;;;;;;42.65;12.88;;;8.00;99.90;;;;;;5105638;28;20275;-65
2021/12/29 10:12:59;;;;;;;38.05;12.00;;;8.10;99.90;;;;;;5089497;28;20054;-65
2021/12/29 10:15:31;;;;;;;35.67;11.43;;;8.10;99.90;;;;;;5121151;27;20630;-65
2021/12/29 10:18:12;;;;;;;32.67;11.57;;;8.10;99.90;;;;;;5117698;27;20057;-64
2021/12/29 10:21:06;;;;;;;33.10;11.60;;;8.20;99.90;;;;;;5123824;27;20356;-66
2021/12/29 10:23:34;;;;;;;31.42;10.82;;;8.20;99.90;;;;;;5059986;28;20036;-65
2021/12/29 10:26:15;;;;;;;30.90;10.48;;;8.10;99.90;;;;;;5069127;28;20110;-65
2021/12/29 10:28:47;;;;;;;29.63;10.27;;;8.10;99.90;;;;;;5075054;28;20086;-65
2021/12/29 10:31:21;;;;;;;32.05;10.10;;;8.10;99.90;;;;;;5068468;28;20051;-65
2021/12/29 10:33:50;;;;;;;30.48;9.93;;;8.20;99.90;;;;;;5104141;28;20044;-68
2021/12/29 10:36:29;;;;;;;27.98;10.05;;;8.10;99.90;;;;;;5105962;28;20052;-64
2021/12/29 10:38:58;;;;;;;22.07;9.30;;;8.10;99.90;;;;;;5088179;28;20051;-64
2021/12/29 10:41:25;;;;;;;24.90;9.13;;;8.30;99.90;;;;;;5103274;28;20055;-64
2021/12/29 10:43:58;;;;;;;22.15;8.88;;;8.20;99.90;;;;;;5089026;28;20067;-65
2021/12/29 10:46:26;;;;;;;25.73;9.55;;;8.40;99.90;;;;;;5107083;28;20047;-67
2021/12/29 10:48:53;;;;;;;20.08;8.05;;;8.20;99.90;;;;;;5105914;28;20066;-65
2021/12/29 10:51:25;;;;;;;18.73;8.88;;;8.30;99.90;;;;;;5081476;28;20051;-64
2021/12/29 10:53:51;;;;;;;22.48;8.13;;;8.20;99.90;;;;;;5079149;28;20032;-64
2021/12/29 10:56:25;;;;;;;19.92;7.85;;;8.20;99.90;;;;;;5048842;28;20056;-65
2021/12/29 10:58:53;;;;;;;19.48;8.05;;;8.40;99.90;;;;;;5064511;28;20044;-65
2021/12/29 11:01:20;;;;;;;19.08;8.18;;;8.40;99.90;;;;;;5083989;28;20482;-65
2021/12/29 11:03:49;;;;;;;16.75;7.45;;;8.30;99.90;;;;;;5079549;28;20123;-65
2021/12/29 11:06:18;;;;;;;19.52;8.07;;;8.30;99.90;;;;;;5104252;28;20046;-65
2021/12/29 11:08:53;;;;;;;17.30;7.95;;;8.30;99.90;;;;;;5078741;28;20055;-64
2021/12/29 11:11:32;;;;;;;17.33;8.13;;;8.40;99.90;;;;;;5084137;28;20051;-65
2021/12/29 11:14:16;;;;;;;18.08;8.38;;;8.30;99.90;;;;;;5095694;28;20076;-64
2021/12/29 11:16:44;;;;;;;21.75;9.15;;;8.30;99.90;;;;;;5101948;28;20392;-65
2021/12/29 11:19:10;;;;;;;22.27;10.10;;;8.20;99.90;;;;;;5086748;28;20123;-67
2021/12/29 11:21:40;;;;;;;23.65;9.18;;;8.20;99.90;;;;;;5087315;28;20094;-64
2021/12/29 11:24:23;;;;;;;26.20;9.95;;;8.20;99.90;;;;;;5096060;28;20047;-63
2021/12/29 11:26:50;;;;;;;19.48;9.73;;;8.30;99.90;;;;;;5063967;28;20059;-64
2021/12/29 11:29:19;;;;;;;20.55;10.35;;;8.20;99.90;;;;;;5069287;28;20058;-63
2021/12/29 11:32:03;;;;;;;21.45;9.95;;;8.40;99.90;;;;;;5090545;28;20543;-63
2021/12/29 11:34:29;;;;;;;19.58;8.70;;;8.30;99.90;;;;;;5104262;28;20043;-63
2021/12/29 11:37:11;;;;;;;17.92;9.25;;;8.30;99.90;;;;;;5081805;28;20048;-63
2021/12/29 11:39:39;;;;;;;23.85;9.77;;;8.40;99.90;;;;;;5095735;28;20565;-63
2021/12/29 11:42:06;;;;;;;24.80;9.60;;;8.60;99.90;;;;;;5097912;28;20100;-63
2021/12/29 11:44:32;;;;;;;21.77;9.65;;;8.50;99.90;;;;;;5119914;28;20294;-62
2021/12/29 11:46:57;;;;;;;20.50;9.77;;;8.50;99.90;;;;;;5099787;28;20284;-62
2021/12/29 11:49:23;;;;;;;20.52;9.70;;;8.40;99.90;;;;;;5086988;28;20133;-63
2021/12/29 11:52:01;;;;;;;30.27;10.30;;;8.50;99.90;;;;;;5089306;28;20075;-63
2021/12/29 11:54:50;;;;;;;25.48;9.88;;;8.60;99.90;;;;;;5085104;28;20058;-61
2021/12/29 11:57:22;;;;;;;30.48;10.73;;;8.60;99.90;;;;;;5098319;28;20056;-64
2021/12/29 11:59:48;;;;;;;30.33;11.27;;;8.70;99.90;;;;;;5100183;28;20071;-64
2021/12/29 12:02:27;;;;;;;30.20;10.68;;;8.60;99.90;;;;;;5090544;28;20083;-64
2021/12/29 12:05:22;;;;;;;29.92;11.00;;;8.60;99.90;;;;;;5060810;28;20271;-64
2021/12/29 12:07:49;;;;;;;28.10;10.38;;;8.60;99.90;;;;;;5072090;28;20049;-64
2021/12/29 12:10:33;;;;;;;25.48;10.18;;;8.80;99.90;;;;;;5079106;28;20070;-64
2021/12/29 12:12:59;;;;;;;24.63;10.68;;;8.70;99.90;;;;;;5072169;28;20054;-64
2021/12/29 12:15:36;;;;;;;26.08;10.50;;;8.70;99.90;;;;;;5100693;28;20127;-64
2021/12/29 12:18:07;;;;;;;28.98;11.85;;;8.60;99.90;;;;;;5054760;28;20060;-64
2021/12/29 12:20:44;;;;;;;29.80;11.85;;;8.70;99.90;;;;;;5079442;28;20048;-64
2021/12/29 12:23:28;;;;;;;34.42;11.45;;;8.70;99.90;;;;;;5055816;28;20072;-64
2021/12/29 12:26:05;;;;;;;33.00;12.25;;;8.70;99.90;;;;;;5079642;28;20072;-64
2021/12/29 12:28:46;;;;;;;30.05;10.93;;;8.70;99.90;;;;;;5065756;28;20105;-64
2021/12/29 12:31:21;;;;;;;28.88;10.73;;;8.80;99.90;;;;;;5097093;28;20079;-64
2021/12/29 12:33:47;;;;;;;25.23;11.13;;;8.80;99.90;;;;;;5057565;28;20443;-64
2021/12/29 12:36:12;;;;;;;22.98;10.40;;;8.70;99.90;;;;;;5097979;28;20048;-64
2021/12/29 12:38:38;;;;;;;24.70;10.82;;;8.70;99.90;;;;;;5086978;28;20059;-64
2021/12/29 12:41:10;;;;;;;27.05;10.10;;;8.80;99.90;;;;;;5079595;28;20147;-64
2021/12/29 12:43:57;;;;;;;27.13;10.10;;;8.80;99.90;;;;;;5070484;28;20103;-64
2021/12/29 12:46:34;;;;;;;26.67;9.23;;;8.80;99.90;;;;;;5066336;28;20361;-64
2021/12/29 12:49:15;;;;;;;25.25;9.93;;;8.80;99.90;;;;;;5066598;28;20103;-64